Time;durP1;ratioP1;P1;durP2;ratioP2;P2;SDS_P1;SDS_P2;PMS_P1;PMS_P2;Temp;Humidity;BMP_temperature;BMP_pressure;BME280_temperature;BME280_humidity;BME280_pressure;Samples;Min_cycle;Max_cycle;Signal;HPM_P1;HPM_P2
2023/09/29 00:00:58;;;;;;;28.33;15.07;;;;;;;;;;5069380;28;20489;-60
2023/09/29 00:03:23;;;;;;;30.13;15.20;;;;;;;;;;5069339;28;20449;-59
2023/09/29 00:05:49;;;;;;;35.63;18.95;;;;;;;;;;5069456;28;20032;-61
2023/09/29 00:08:22;;;;;;;25.83;16.48;;;;;;;;;;5071113;28;20032;-59
2023/09/29 00:10:47;;;;;;;27.08;19.00;;;;;;;;;;5068999;28;20440;-59
2023/09/29 00:13:13;;;;;;;26.13;16.40;;;;;;;;;;5069776;28;20059;-60
2023/09/29 00:15:38;;;;;;;28.98;16.70;;;;;;;;;;5069259;28;20466;-60
2023/09/29 00:18:05;;;;;;;29.80;16.15;;;;;;;;;;5057925;28;20579;-60
2023/09/29 00:20:30;;;;;;;22.88;18.55;;;;;;;;;;5054296;28;20044;-60
2023/09/29 00:22:56;;;;;;;34.20;19.30;;;;;;;;;;5070154;28;20090;-60
2023/09/29 00:25:22;;;;;;;31.65;18.23;;;;;;;;;;5069105;28;20077;-60
2023/09/29 00:27:47;;;;;;;24.80;16.77;;;;;;;;;;5070642;28;20108;-60
2023/09/29 00:30:13;;;;;;;31.80;17.55;;;;;;;;;;5067955;28;20016;-60
2023/09/29 00:32:45;;;;;;;32.00;19.10;;;;;;;;;;5070335;28;20016;-60
2023/09/29 00:35:11;;;;;;;35.17;19.40;;;;;;;;;;5049248;28;20045;-60
2023/09/29 00:37:36;;;;;;;28.88;19.83;;;;;;;;;;5050569;28;20751;-60
2023/09/29 00:40:02;;;;;;;29.63;18.90;;;;;;;;;;5048668;28;20017;-61
2023/09/29 00:42:27;;;;;;;26.05;17.52;;;;;;;;;;5066719;28;20051;-61
2023/09/29 00:44:52;;;;;;;33.85;18.88;;;;;;;;;;5070485;28;20104;-61
2023/09/29 00:47:20;;;;;;;33.77;18.73;;;;;;;;;;5068647;28;20112;-61
2023/09/29 00:49:47;;;;;;;30.98;19.17;;;;;;;;;;5070486;28;20442;-60
2023/09/29 00:52:13;;;;;;;30.95;19.27;;;;;;;;;;5049920;28;20060;-61
2023/09/29 00:54:38;;;;;;;26.75;20.60;;;;;;;;;;5050103;28;20052;-61
2023/09/29 00:57:05;;;;;;;30.47;18.27;;;;;;;;;;5065135;28;20040;-61
2023/09/29 00:59:31;;;;;;;36.42;21.75;;;;;;;;;;5070610;28;20025;-61
2023/09/29 01:01:57;;;;;;;28.92;18.55;;;;;;;;;;5068253;28;20663;-60
2023/09/29 01:04:23;;;;;;;33.25;20.27;;;;;;;;;;5070429;28;20032;-61
2023/09/29 01:06:49;;;;;;;34.55;19.20;;;;;;;;;;5068533;28;20082;-60
2023/09/29 01:09:14;;;;;;;29.05;18.38;;;;;;;;;;5070116;28;20020;-60
2023/09/29 01:11:42;;;;;;;46.15;20.00;;;;;;;;;;5068692;28;20119;-60
2023/09/29 01:14:08;;;;;;;24.80;16.92;;;;;;;;;;5070315;28;20475;-62
2023/09/29 01:16:33;;;;;;;25.65;17.25;;;;;;;;;;5068532;28;20043;-61
2023/09/29 01:18:58;;;;;;;25.15;15.50;;;;;;;;;;5069702;28;20052;-71
2023/09/29 01:21:23;;;;;;;23.53;16.17;;;;;;;;;;5067989;28;20045;-62
2023/09/29 01:23:48;;;;;;;23.27;17.45;;;;;;;;;;5069686;28;20482;-61
2023/09/29 01:26:13;;;;;;;26.60;17.73;;;;;;;;;;5068598;28;20044;-61
2023/09/29 01:28:39;;;;;;;26.63;15.90;;;;;;;;;;5072305;28;20025;-61
2023/09/29 01:31:06;;;;;;;22.52;16.13;;;;;;;;;;5072351;28;20028;-61
2023/09/29 01:33:32;;;;;;;30.60;17.23;;;;;;;;;;5074073;28;20040;-62
2023/09/29 01:35:57;;;;;;;24.27;16.60;;;;;;;;;;5072349;28;20029;-62
2023/09/29 01:38:23;;;;;;;21.00;14.30;;;;;;;;;;5073566;28;20418;-62
2023/09/29 01:40:48;;;;;;;22.77;14.52;;;;;;;;;;5071816;28;20052;-62
2023/09/29 01:43:16;;;;;;;20.67;15.00;;;;;;;;;;5073793;28;20529;-61
2023/09/29 01:45:41;;;;;;;20.83;14.57;;;;;;;;;;5071840;28;20533;-62
2023/09/29 01:48:07;;;;;;;20.92;15.48;;;;;;;;;;5073945;28;20099;-62
2023/09/29 01:50:32;;;;;;;29.83;14.60;;;;;;;;;;5070866;28;20449;-62
2023/09/29 01:52:57;;;;;;;24.85;16.88;;;;;;;;;;5073054;28;20130;-64
2023/09/29 01:55:24;;;;;;;23.92;13.57;;;;;;;;;;5072204;28;20450;-62
2023/09/29 01:57:49;;;;;;;27.73;15.70;;;;;;;;;;5073474;28;20028;-62
2023/09/29 02:00:19;;;;;;;20.48;11.45;;;;;;;;;;5071353;28;20025;-62
2023/09/29 02:02:44;;;;;;;22.00;15.65;;;;;;;;;;5073185;28;20052;-62
2023/09/29 02:05:11;;;;;;;16.08;12.98;;;;;;;;;;5071857;28;20519;-62
2023/09/29 02:07:36;;;;;;;20.08;12.93;;;;;;;;;;5072659;28;20024;-62
2023/09/29 02:10:02;;;;;;;25.35;13.18;;;;;;;;;;5071585;28;20017;-61
2023/09/29 02:12:30;;;;;;;14.77;11.82;;;;;;;;;;5073418;28;20057;-62
2023/09/29 02:14:55;;;;;;;19.55;12.70;;;;;;;;;;5071410;28;20463;-63
2023/09/29 02:17:20;;;;;;;23.60;12.53;;;;;;;;;;5071746;28;20046;-62
2023/09/29 02:19:46;;;;;;;18.80;12.20;;;;;;;;;;5072995;28;20048;-60
2023/09/29 02:22:16;;;;;;;14.48;11.55;;;;;;;;;;5070717;28;20040;-61
2023/09/29 02:24:41;;;;;;;16.42;11.48;;;;;;;;;;5073184;28;20059;-61
2023/09/29 02:27:06;;;;;;;18.83;11.80;;;;;;;;;;5071657;28;20056;-61
2023/09/29 02:29:32;;;;;;;19.73;13.13;;;;;;;;;;5072685;28;20086;-67
2023/09/29 02:31:57;;;;;;;19.25;12.35;;;;;;;;;;5071152;28;20044;-69
2023/09/29 02:34:23;;;;;;;17.23;11.03;;;;;;;;;;5072718;28;20045;-62
2023/09/29 02:36:48;;;;;;;13.02;11.07;;;;;;;;;;5071049;28;20444;-62
2023/09/29 02:39:13;;;;;;;20.03;10.93;;;;;;;;;;5072654;28;20111;-61
2023/09/29 02:41:38;;;;;;;16.30;10.20;;;;;;;;;;5070890;28;20471;-62
2023/09/29 02:44:04;;;;;;;15.63;10.38;;;;;;;;;;5072646;28;20024;-63
2023/09/29 02:46:29;;;;;;;16.27;11.02;;;;;;;;;;5071039;28;20070;-62
2023/09/29 02:48:54;;;;;;;16.98;10.50;;;;;;;;;;5072725;28;20017;-62
2023/09/29 02:51:19;;;;;;;16.37;9.97;;;;;;;;;;5070889;28;20053;-61
2023/09/29 02:53:48;;;;;;;13.17;8.83;;;;;;;;;;5072120;28;20078;-61
2023/09/29 02:56:16;;;;;;;14.98;11.40;;;;;;;;;;5071269;28;20451;-61
2023/09/29 02:58:42;;;;;;;18.90;12.35;;;;;;;;;;5072315;28;20012;-61
2023/09/29 03:01:11;;;;;;;15.13;8.57;;;;;;;;;;5070705;28;20044;-61
2023/09/29 03:03:37;;;;;;;13.85;8.43;;;;;;;;;;5072184;28;20427;-61
2023/09/29 03:06:07;;;;;;;8.80;8.00;;;;;;;;;;5070970;28;20032;-60
2023/09/29 03:08:33;;;;;;;9.95;8.40;;;;;;;;;;5072310;28;20019;-61
2023/09/29 03:10:58;;;;;;;12.10;8.27;;;;;;;;;;5070795;28;20119;-62
2023/09/29 03:13:23;;;;;;;17.92;9.07;;;;;;;;;;5072243;28;20042;-61
2023/09/29 03:15:48;;;;;;;12.43;7.97;;;;;;;;;;5070246;28;20090;-61
2023/09/29 03:18:13;;;;;;;13.35;8.80;;;;;;;;;;5071619;28;20535;-61
2023/09/29 03:20:39;;;;;;;18.50;10.50;;;;;;;;;;5070112;28;20058;-61
2023/09/29 03:23:04;;;;;;;14.38;8.18;;;;;;;;;;5071589;28;20016;-61
2023/09/29 03:25:29;;;;;;;9.18;7.90;;;;;;;;;;5070626;28;20115;-61
2023/09/29 03:27:55;;;;;;;11.02;9.18;;;;;;;;;;5071951;28;20367;-61
2023/09/29 03:30:20;;;;;;;14.80;9.60;;;;;;;;;;5070014;28;20048;-61
2023/09/29 03:32:45;;;;;;;12.87;8.30;;;;;;;;;;5071577;28;20035;-61
2023/09/29 03:35:10;;;;;;;17.27;9.20;;;;;;;;;;5070170;28;20036;-61
2023/09/29 03:37:37;;;;;;;10.35;8.07;;;;;;;;;;5070060;28;20035;-63
2023/09/29 03:40:26;;;;;;;10.57;7.53;;;;;;;;;;5070082;28;20149;-60
2023/09/29 03:42:48;;;;;;;13.25;7.15;;;;;;;;;;5070850;28;20464;-68
2023/09/29 03:45:14;;;;;;;9.67;7.63;;;;;;;;;;5069799;28;20476;-61
2023/09/29 03:47:39;;;;;;;9.25;6.85;;;;;;;;;;5071289;28;20067;-61
2023/09/29 03:50:11;;;;;;;14.20;8.32;;;;;;;;;;5069562;28;20043;-61
2023/09/29 03:52:37;;;;;;;12.27;7.20;;;;;;;;;;5070832;28;20719;-61
2023/09/29 03:55:02;;;;;;;10.38;7.22;;;;;;;;;;5070121;28;20017;-60
2023/09/29 03:57:27;;;;;;;8.38;6.70;;;;;;;;;;5070756;28;20087;-60
2023/09/29 03:59:52;;;;;;;12.30;6.67;;;;;;;;;;5070641;28;20020;-59
2023/09/29 04:02:17;;;;;;;10.45;6.35;;;;;;;;;;5069323;28;20403;-60
2023/09/29 04:04:43;;;;;;;16.67;7.00;;;;;;;;;;5070942;28;20383;-61
2023/09/29 04:07:08;;;;;;;10.63;6.33;;;;;;;;;;5068923;28;20124;-61
2023/09/29 04:09:33;;;;;;;8.77;6.32;;;;;;;;;;5071094;28;20012;-61
2023/09/29 04:11:58;;;;;;;8.00;5.73;;;;;;;;;;5068750;28;20041;-61
2023/09/29 04:14:23;;;;;;;18.00;8.83;;;;;;;;;;5070466;28;20024;-59
2023/09/29 04:16:48;;;;;;;13.77;7.47;;;;;;;;;;5069437;28;20443;-62
2023/09/29 04:19:14;;;;;;;12.27;8.30;;;;;;;;;;5070809;28;20040;-61
2023/09/29 04:21:39;;;;;;;10.18;6.32;;;;;;;;;;5066985;28;20520;-59
2023/09/29 04:24:05;;;;;;;12.17;9.00;;;;;;;;;;5070496;28;20020;-59
2023/09/29 04:26:30;;;;;;;7.60;6.53;;;;;;;;;;5068464;28;20146;-58
2023/09/29 04:28:57;;;;;;;19.88;6.50;;;;;;;;;;5068546;28;20024;-59
2023/09/29 04:31:22;;;;;;;7.13;5.00;;;;;;;;;;5069426;28;20457;-58
2023/09/29 04:33:47;;;;;;;9.40;6.07;;;;;;;;;;5070417;28;20072;-59
2023/09/29 04:36:12;;;;;;;9.07;6.50;;;;;;;;;;5069023;28;20032;-59
2023/09/29 04:38:37;;;;;;;11.90;6.80;;;;;;;;;;5070412;28;20376;-59
2023/09/29 04:41:04;;;;;;;12.37;6.63;;;;;;;;;;5069015;28;20036;-59
2023/09/29 04:43:30;;;;;;;6.05;5.47;;;;;;;;;;5069249;28;20494;-58
2023/09/29 04:45:55;;;;;;;11.63;5.47;;;;;;;;;;5069084;28;20033;-59
2023/09/29 04:48:21;;;;;;;12.60;7.25;;;;;;;;;;5070766;28;20020;-59
2023/09/29 04:50:46;;;;;;;9.60;5.72;;;;;;;;;;5068632;28;20063;-72
2023/09/29 04:53:11;;;;;;;9.30;6.30;;;;;;;;;;5070766;28;20100;-58
2023/09/29 04:55:36;;;;;;;7.03;6.33;;;;;;;;;;5068932;28;20040;-58
2023/09/29 04:58:01;;;;;;;8.20;4.95;;;;;;;;;;5070252;28;20967;-59
2023/09/29 05:00:26;;;;;;;7.28;5.90;;;;;;;;;;5068826;28;20483;-58
2023/09/29 05:02:52;;;;;;;6.50;5.82;;;;;;;;;;5069462;28;20052;-58
2023/09/29 05:05:17;;;;;;;6.50;5.25;;;;;;;;;;5068623;28;20079;-59
2023/09/29 05:07:45;;;;;;;5.68;4.60;;;;;;;;;;5070193;28;20023;-58
2023/09/29 05:10:11;;;;;;;6.05;5.22;;;;;;;;;;5068916;28;20023;-59
2023/09/29 05:12:37;;;;;;;7.60;5.65;;;;;;;;;;5070017;28;20075;-59
2023/09/29 05:15:03;;;;;;;6.95;5.85;;;;;;;;;;5068909;28;20384;-59
2023/09/29 05:17:28;;;;;;;9.77;4.55;;;;;;;;;;5070553;28;20017;-59
2023/09/29 05:19:53;;;;;;;10.00;5.38;;;;;;;;;;5068147;28;20217;-57
2023/09/29 05:22:20;;;;;;;5.18;4.68;;;;;;;;;;5070133;28;20036;-59
2023/09/29 05:24:45;;;;;;;11.65;5.15;;;;;;;;;;5070127;28;20020;-74
2023/09/29 05:27:10;;;;;;;9.23;5.53;;;;;;;;;;5068092;28;20037;-59
2023/09/29 05:29:37;;;;;;;7.20;5.57;;;;;;;;;;5069940;28;20028;-59
2023/09/29 05:32:02;;;;;;;8.60;5.65;;;;;;;;;;5068580;28;20120;-59
2023/09/29 05:34:28;;;;;;;9.87;6.37;;;;;;;;;;5069442;28;20072;-59
2023/09/29 05:36:53;;;;;;;9.73;4.57;;;;;;;;;;5068330;28;20454;-59
2023/09/29 05:39:18;;;;;;;5.23;3.90;;;;;;;;;;5069873;28;20074;-60
2023/09/29 05:41:43;;;;;;;7.15;5.15;;;;;;;;;;5067639;28;20036;-60
2023/09/29 05:44:09;;;;;;;6.20;5.05;;;;;;;;;;5069692;28;20482;-62
2023/09/29 05:46:34;;;;;;;8.05;5.88;;;;;;;;;;5068362;28;20047;-60
2023/09/29 05:48:59;;;;;;;8.03;5.23;;;;;;;;;;5069498;28;20066;-61
2023/09/29 05:51:24;;;;;;;8.70;5.13;;;;;;;;;;5068123;28;20510;-61
2023/09/29 05:53:49;;;;;;;6.32;4.85;;;;;;;;;;5069391;28;20019;-58
2023/09/29 05:56:15;;;;;;;7.53;4.57;;;;;;;;;;5068316;28;20094;-59
2023/09/29 05:58:41;;;;;;;8.60;5.60;;;;;;;;;;5069026;28;20100;-58
2023/09/29 06:01:09;;;;;;;7.50;6.00;;;;;;;;;;5068244;28;20459;-58
2023/09/29 06:03:35;;;;;;;7.68;4.78;;;;;;;;;;5069720;28;20107;-58
2023/09/29 06:06:00;;;;;;;7.15;4.50;;;;;;;;;;5067550;28;20107;-59
2023/09/29 06:08:25;;;;;;;10.20;6.18;;;;;;;;;;5069630;28;20099;-60
2023/09/29 06:10:51;;;;;;;8.13;5.03;;;;;;;;;;5066492;28;20029;-59
2023/09/29 06:13:16;;;;;;;10.85;4.80;;;;;;;;;;5069680;28;20094;-59
2023/09/29 06:15:41;;;;;;;6.40;4.60;;;;;;;;;;5071517;28;20480;-59
2023/09/29 06:18:07;;;;;;;14.57;5.83;;;;;;;;;;5073209;28;20017;-60
2023/09/29 06:20:32;;;;;;;6.80;4.87;;;;;;;;;;5071429;28;20063;-69
2023/09/29 06:22:57;;;;;;;7.25;4.80;;;;;;;;;;5072980;28;20572;-59
2023/09/29 06:25:22;;;;;;;6.67;4.20;;;;;;;;;;5071432;28;20355;-60
2023/09/29 06:27:47;;;;;;;7.00;5.00;;;;;;;;;;5072369;28;20017;-59
2023/09/29 06:30:12;;;;;;;10.50;4.57;;;;;;;;;;5071913;28;20083;-59
2023/09/29 06:32:37;;;;;;;12.23;4.77;;;;;;;;;;5072876;28;20845;-59
2023/09/29 06:35:03;;;;;;;7.17;4.37;;;;;;;;;;5071061;28;20044;-60
2023/09/29 06:37:28;;;;;;;6.45;4.60;;;;;;;;;;5072940;28;20512;-59
2023/09/29 06:39:53;;;;;;;7.07;4.75;;;;;;;;;;5072285;28;20013;-59
2023/09/29 06:42:18;;;;;;;8.80;4.32;;;;;;;;;;5071042;28;20403;-59
2023/09/29 06:44:43;;;;;;;14.18;5.13;;;;;;;;;;5072653;28;20027;-59
2023/09/29 06:47:09;;;;;;;8.15;4.75;;;;;;;;;;5071123;28;20075;-59
2023/09/29 06:49:34;;;;;;;7.72;5.07;;;;;;;;;;5072480;28;20696;-60
2023/09/29 06:51:59;;;;;;;5.57;4.30;;;;;;;;;;5070955;28;20058;-59
2023/09/29 06:54:24;;;;;;;6.65;4.70;;;;;;;;;;5072670;28;20415;-61
2023/09/29 06:56:49;;;;;;;9.10;5.00;;;;;;;;;;5070441;28;20032;-59
2023/09/29 06:59:14;;;;;;;7.80;3.70;;;;;;;;;;5069252;28;20031;-59
2023/09/29 07:01:39;;;;;;;7.47;5.03;;;;;;;;;;5066026;28;20241;-59
2023/09/29 07:04:05;;;;;;;14.05;5.57;;;;;;;;;;5052488;28;20024;-59
2023/09/29 07:06:30;;;;;;;9.97;6.33;;;;;;;;;;5068832;28;20028;-59
2023/09/29 07:08:55;;;;;;;6.60;4.43;;;;;;;;;;5071917;28;20017;-59
2023/09/29 07:11:20;;;;;;;8.43;5.07;;;;;;;;;;5069655;28;20438;-59
2023/09/29 07:13:45;;;;;;;9.60;4.63;;;;;;;;;;5070744;28;20027;-59
2023/09/29 07:16:10;;;;;;;10.17;4.90;;;;;;;;;;5069303;28;20507;-59
2023/09/29 07:18:36;;;;;;;6.30;5.17;;;;;;;;;;5054199;28;20143;-59
2023/09/29 07:21:01;;;;;;;17.70;5.10;;;;;;;;;;5050635;28;20554;-60
2023/09/29 07:23:29;;;;;;;6.00;4.60;;;;;;;;;;5051646;28;20541;-59
2023/09/29 07:25:55;;;;;;;;;;;;;;;;;;5049536;28;20447;-59
2023/09/29 07:28:21;;;;;;;8.40;5.50;;;;;;;;;;5051874;28;19967;-59
2023/09/29 07:30:47;;;;;;;9.05;5.95;;;;;;;;;;5050461;28;20041;-60
2023/09/29 07:33:12;;;;;;;10.10;4.68;;;;;;;;;;5051355;28;20029;-59
2023/09/29 07:35:37;;;;;;;8.57;4.97;;;;;;;;;;5049911;28;20167;-63
2023/09/29 07:38:03;;;;;;;11.07;4.90;;;;;;;;;;5051458;28;20474;-59
2023/09/29 07:40:29;;;;;;;7.47;5.07;;;;;;;;;;5049822;28;20080;-59
2023/09/29 07:42:54;;;;;;;10.75;4.97;;;;;;;;;;5051658;28;20039;-59
2023/09/29 07:45:20;;;;;;;11.27;6.10;;;;;;;;;;5050318;28;20025;-59
2023/09/29 07:47:45;;;;;;;9.45;4.38;;;;;;;;;;5050740;28;20040;-59
2023/09/29 07:50:10;;;;;;;11.52;4.93;;;;;;;;;;5050195;28;20047;-59
2023/09/29 07:52:38;;;;;;;11.97;6.20;;;;;;;;;;5051786;28;20025;-59
2023/09/29 07:55:04;;;;;;;6.75;4.28;;;;;;;;;;5049962;28;20450;-59
2023/09/29 07:57:29;;;;;;;7.03;5.55;;;;;;;;;;5051600;28;20117;-59
2023/09/29 07:59:55;;;;;;;8.50;3.83;;;;;;;;;;5048229;28;20103;-58
2023/09/29 08:02:20;;;;;;;6.93;4.07;;;;;;;;;;5051017;28;20531;-59
2023/09/29 08:04:45;;;;;;;6.97;3.97;;;;;;;;;;5051248;28;20028;-59
2023/09/29 08:07:12;;;;;;;7.37;4.43;;;;;;;;;;5050016;28;20033;-60
2023/09/29 08:09:37;;;;;;;9.65;4.15;;;;;;;;;;5051062;28;20131;-66
2023/09/29 08:12:02;;;;;;;5.77;3.33;;;;;;;;;;5049787;28;20032;-60
2023/09/29 08:14:27;;;;;;;10.20;4.70;;;;;;;;;;5051476;28;20546;-59
2023/09/29 08:16:52;;;;;;;8.90;4.65;;;;;;;;;;5049662;28;20036;-60
2023/09/29 08:19:17;;;;;;;6.45;4.70;;;;;;;;;;5050818;28;20028;-59
2023/09/29 08:21:42;;;;;;;5.93;4.57;;;;;;;;;;5049366;28;20485;-59
2023/09/29 08:24:08;;;;;;;6.47;4.00;;;;;;;;;;5051285;28;20041;-59
2023/09/29 08:26:34;;;;;;;9.18;3.95;;;;;;;;;;5049428;28;20487;-59
2023/09/29 08:29:02;;;;;;;8.02;3.90;;;;;;;;;;5050928;28;20021;-60
2023/09/29 08:31:27;;;;;;;9.07;4.53;;;;;;;;;;5048168;28;20075;-59
2023/09/29 08:33:52;;;;;;;7.37;4.27;;;;;;;;;;5050236;28;20106;-60
2023/09/29 08:36:17;;;;;;;11.97;3.80;;;;;;;;;;5049260;28;20537;-59
2023/09/29 08:38:42;;;;;;;5.97;3.70;;;;;;;;;;5050610;28;20020;-59
2023/09/29 08:41:08;;;;;;;4.93;4.00;;;;;;;;;;5048760;28;20044;-60
2023/09/29 08:43:33;;;;;;;8.73;3.78;;;;;;;;;;5050899;28;20476;-60
2023/09/29 08:45:59;;;;;;;9.20;4.43;;;;;;;;;;5048748;28;20025;-64
2023/09/29 08:48:29;;;;;;;8.25;5.68;;;;;;;;;;5048956;28;20067;-59
2023/09/29 08:50:57;;;;;;;7.05;4.22;;;;;;;;;;5048952;28;20033;-59
2023/09/29 08:53:24;;;;;;;7.47;3.80;;;;;;;;;;5052052;28;20104;-58
2023/09/29 08:55:49;;;;;;;5.30;3.55;;;;;;;;;;5058363;28;20522;-59
2023/09/29 08:58:15;;;;;;;4.53;3.80;;;;;;;;;;5050353;28;20025;-59
2023/09/29 09:00:40;;;;;;;4.80;3.97;;;;;;;;;;5048292;28;20462;-59
2023/09/29 09:03:05;;;;;;;6.60;3.78;;;;;;;;;;5049801;28;20040;-59
2023/09/29 09:05:30;;;;;;;6.72;4.18;;;;;;;;;;5048899;28;20395;-59
2023/09/29 09:07:58;;;;;;;9.40;4.80;;;;;;;;;;5048644;28;20489;-60
2023/09/29 09:10:34;;;;;;;8.38;4.10;;;;;;;;;;5048444;28;20025;-60
2023/09/29 09:12:59;;;;;;;5.03;4.30;;;;;;;;;;5050082;28;20464;-60
2023/09/29 09:15:24;;;;;;;10.73;5.40;;;;;;;;;;5064220;28;20055;-59
2023/09/29 09:17:50;;;;;;;7.00;3.78;;;;;;;;;;5049228;28;20017;-59
2023/09/29 09:20:15;;;;;;;8.63;3.67;;;;;;;;;;5048053;28;20036;-59
2023/09/29 09:22:41;;;;;;;4.85;3.70;;;;;;;;;;5050074;28;20066;-62
2023/09/29 09:25:08;;;;;;;6.22;3.92;;;;;;;;;;5048684;28;20014;-60
2023/09/29 09:27:37;;;;;;;9.65;3.67;;;;;;;;;;5050384;28;20096;-61
2023/09/29 09:30:03;;;;;;;5.55;3.42;;;;;;;;;;5048608;28;20503;-59
2023/09/29 09:32:28;;;;;;;4.28;2.70;;;;;;;;;;5049527;28;20028;-60
2023/09/29 09:34:54;;;;;;;6.05;3.35;;;;;;;;;;5050312;28;20060;-59
2023/09/29 09:37:29;;;;;;;15.43;3.97;;;;;;;;;;5048589;28;20071;-59
2023/09/29 09:39:54;;;;;;;8.20;3.72;;;;;;;;;;5049193;28;20021;-60
2023/09/29 09:42:21;;;;;;;5.90;3.65;;;;;;;;;;5048552;28;20049;-59
2023/09/29 09:44:46;;;;;;;9.27;3.17;;;;;;;;;;5065112;28;20528;-59
2023/09/29 09:47:12;;;;;;;6.88;3.47;;;;;;;;;;5047934;28;20112;-60
2023/09/29 09:49:45;;;;;;;8.30;3.63;;;;;;;;;;5051979;28;20021;-60
2023/09/29 09:52:15;;;;;;;5.15;2.90;;;;;;;;;;5052359;28;20048;-59
2023/09/29 09:54:47;;;;;;;3.88;3.45;;;;;;;;;;5053533;28;20101;-59
2023/09/29 09:57:17;;;;;;;3.67;2.80;;;;;;;;;;5052452;28;20344;-59
2023/09/29 09:59:44;;;;;;;5.85;2.58;;;;;;;;;;5053543;28;20017;-59
2023/09/29 10:02:11;;;;;;;6.50;4.30;;;;;;;;;;5051271;28;20040;-59
2023/09/29 10:04:38;;;;;;;5.72;3.00;;;;;;;;;;5079648;28;20091;-60
2023/09/29 10:07:04;;;;;;;6.30;3.25;;;;;;;;;;5071372;28;20067;-59
2023/09/29 10:09:39;;;;;;;15.57;3.33;;;;;;;;;;5070567;28;20792;-59
2023/09/29 10:12:05;;;;;;;3.90;3.47;;;;;;;;;;5069467;28;20029;-59
2023/09/29 10:14:40;;;;;;;4.95;2.83;;;;;;;;;;5072726;28;20074;-59
2023/09/29 10:17:06;;;;;;;16.23;4.53;;;;;;;;;;5071357;28;20044;-59
2023/09/29 10:19:37;;;;;;;4.75;2.83;;;;;;;;;;5072572;28;20101;-59
2023/09/29 10:22:03;;;;;;;3.20;2.78;;;;;;;;;;5070452;28;20521;-59
2023/09/29 10:24:28;;;;;;;4.75;4.00;;;;;;;;;;5071441;28;20025;-59
2023/09/29 10:26:53;;;;;;;5.15;2.92;;;;;;;;;;5054616;28;20056;-58
2023/09/29 10:29:19;;;;;;;4.15;2.95;;;;;;;;;;5050751;28;20074;-59
2023/09/29 10:31:44;;;;;;;5.68;3.05;;;;;;;;;;5065325;28;20648;-59
2023/09/29 10:34:17;;;;;;;5.87;3.63;;;;;;;;;;5072591;28;20445;-59
2023/09/29 10:36:42;;;;;;;3.92;2.70;;;;;;;;;;5071289;28;20041;-60
2023/09/29 10:39:07;;;;;;;7.80;3.90;;;;;;;;;;5072646;28;20047;-59
2023/09/29 10:41:34;;;;;;;5.75;3.72;;;;;;;;;;5071076;28;20051;-59
2023/09/29 10:44:00;;;;;;;5.30;3.13;;;;;;;;;;5052958;28;20095;-60
2023/09/29 10:46:25;;;;;;;4.80;3.05;;;;;;;;;;5050982;28;20484;-67
2023/09/29 10:48:52;;;;;;;4.18;2.92;;;;;;;;;;5052746;28;20028;-59
2023/09/29 10:51:24;;;;;;;8.93;3.70;;;;;;;;;;5069974;28;20032;-59
2023/09/29 10:53:50;;;;;;;3.85;3.20;;;;;;;;;;5072362;28;20097;-59
2023/09/29 10:56:19;;;;;;;6.32;4.20;;;;;;;;;;5071068;28;20056;-60
2023/09/29 10:58:44;;;;;;;7.68;3.88;;;;;;;;;;5072297;28;20021;-60
2023/09/29 11:01:11;;;;;;;13.98;3.28;;;;;;;;;;5067873;28;20052;-69
2023/09/29 11:03:36;;;;;;;7.72;4.28;;;;;;;;;;5072301;28;20020;-60
2023/09/29 11:06:08;;;;;;;9.53;3.30;;;;;;;;;;5070997;28;20052;-59
2023/09/29 11:08:34;;;;;;;8.35;2.95;;;;;;;;;;5071706;28;20469;-60
2023/09/29 11:11:01;;;;;;;9.48;3.00;;;;;;;;;;5070217;28;20047;-59
2023/09/29 11:13:26;;;;;;;6.55;3.03;;;;;;;;;;5072166;28;20544;-60
2023/09/29 11:15:52;;;;;;;6.85;3.65;;;;;;;;;;5069837;28;20105;-59
2023/09/29 11:18:31;;;;;;;4.35;3.10;;;;;;;;;;5070518;28;20044;-60
2023/09/29 11:21:00;;;;;;;4.38;4.00;;;;;;;;;;5070146;28;20395;-60
2023/09/29 11:23:25;;;;;;;15.85;4.85;;;;;;;;;;5071293;28;20025;-64
2023/09/29 11:25:57;;;;;;;9.63;3.38;;;;;;;;;;5070040;28;20032;-60
2023/09/29 11:28:24;;;;;;;7.20;3.40;;;;;;;;;;5071760;28;20024;-60
2023/09/29 11:30:49;;;;;;;8.07;3.13;;;;;;;;;;5068619;28;20388;-60
2023/09/29 11:33:15;;;;;;;16.13;3.77;;;;;;;;;;5071971;28;20024;-59
2023/09/29 11:35:45;;;;;;;11.23;3.40;;;;;;;;;;5070302;28;20066;-59
2023/09/29 11:38:19;;;;;;;5.60;2.72;;;;;;;;;;5071634;28;20024;-60
2023/09/29 11:40:44;;;;;;;5.57;3.72;;;;;;;;;;5070043;28;20032;-60
2023/09/29 11:43:10;;;;;;;4.82;3.28;;;;;;;;;;5071890;28;20066;-59
2023/09/29 11:45:35;;;;;;;7.78;4.15;;;;;;;;;;5065820;28;20522;-60
2023/09/29 11:48:00;;;;;;;6.50;3.33;;;;;;;;;;5050662;28;20021;-60
2023/09/29 11:50:26;;;;;;;5.82;2.97;;;;;;;;;;5054354;28;20024;-59
2023/09/29 11:52:51;;;;;;;8.77;4.13;;;;;;;;;;5071178;28;20300;-60
2023/09/29 11:55:16;;;;;;;6.03;3.10;;;;;;;;;;5070443;28;20029;-60
2023/09/29 11:57:41;;;;;;;12.60;4.13;;;;;;;;;;5071390;28;20032;-59
2023/09/29 12:00:10;;;;;;;8.23;4.23;;;;;;;;;;5069729;28;20020;-59
2023/09/29 12:02:35;;;;;;;5.38;3.17;;;;;;;;;;5071454;28;20048;-59
2023/09/29 12:05:02;;;;;;;6.90;2.80;;;;;;;;;;5069941;28;20094;-60
2023/09/29 12:07:27;;;;;;;4.53;3.00;;;;;;;;;;5070545;28;20112;-70
2023/09/29 12:09:52;;;;;;;2.37;2.17;;;;;;;;;;5071114;28;20048;-60
2023/09/29 12:12:18;;;;;;;12.97;2.73;;;;;;;;;;5068792;28;20032;-60
2023/09/29 12:14:43;;;;;;;4.53;3.13;;;;;;;;;;5070338;28;20433;-59
2023/09/29 12:17:08;;;;;;;3.70;2.20;;;;;;;;;;5068758;28;20048;-59
2023/09/29 12:19:33;;;;;;;5.45;2.05;;;;;;;;;;5065316;28;20459;-60
2023/09/29 12:21:59;;;;;;;6.28;2.40;;;;;;;;;;5068632;28;20457;-59
2023/09/29 12:24:24;;;;;;;4.30;2.37;;;;;;;;;;5070802;28;20024;-59
2023/09/29 12:26:49;;;;;;;3.53;2.63;;;;;;;;;;5057563;28;20044;-59
2023/09/29 12:29:14;;;;;;;5.03;2.90;;;;;;;;;;5054417;28;20020;-59
2023/09/29 12:31:39;;;;;;;9.80;2.58;;;;;;;;;;5068694;28;20056;-60
2023/09/29 12:34:04;;;;;;;5.13;2.90;;;;;;;;;;5070771;28;20407;-59
2023/09/29 12:36:30;;;;;;;4.90;3.03;;;;;;;;;;5068960;28;20128;-59
2023/09/29 12:38:55;;;;;;;5.55;2.20;;;;;;;;;;5069044;28;20379;-71
2023/09/29 12:41:21;;;;;;;4.53;2.30;;;;;;;;;;5048958;28;20032;-59
2023/09/29 12:43:47;;;;;;;3.10;2.50;;;;;;;;;;5050192;28;20028;-60
2023/09/29 12:46:12;;;;;;;3.38;2.25;;;;;;;;;;5049340;28;20029;-59
2023/09/29 12:48:38;;;;;;;2.93;2.67;;;;;;;;;;5050745;28;20013;-59
2023/09/29 12:51:03;;;;;;;6.78;2.70;;;;;;;;;;5051397;28;20478;-60
2023/09/29 12:53:28;;;;;;;7.17;2.87;;;;;;;;;;5068467;28;20472;-59
2023/09/29 12:55:54;;;;;;;3.05;2.17;;;;;;;;;;5050904;28;20156;-59
2023/09/29 12:58:19;;;;;;;2.53;2.33;;;;;;;;;;5049577;28;20096;-59
2023/09/29 13:00:44;;;;;;;2.22;1.92;;;;;;;;;;5053919;28;20576;-61
2023/09/29 13:03:09;;;;;;;7.10;2.60;;;;;;;;;;5051100;28;20071;-61
2023/09/29 13:05:37;;;;;;;4.93;3.00;;;;;;;;;;5047790;28;20037;-59
2023/09/29 13:08:03;;;;;;;;;;;;;;;;;;5050608;28;20104;-59
2023/09/29 13:10:31;;;;;;;7.93;2.47;;;;;;;;;;5050980;28;19912;-59
2023/09/29 13:12:56;;;;;;;6.50;4.18;;;;;;;;;;5055014;28;20772;-60
2023/09/29 13:15:21;;;;;;;5.43;2.63;;;;;;;;;;5056687;28;20066;-59
2023/09/29 13:17:46;;;;;;;6.63;3.37;;;;;;;;;;5046858;28;20368;-59
2023/09/29 13:20:12;;;;;;;8.40;4.75;;;;;;;;;;5047864;28;21001;-59
2023/09/29 13:22:38;;;;;;;6.85;5.57;;;;;;;;;;5049587;28;20075;-59
2023/09/29 13:25:04;;;;;;;10.07;6.40;;;;;;;;;;5052218;28;20071;-59
2023/09/29 13:27:32;;;;;;;5.28;3.42;;;;;;;;;;5066825;28;20033;-59
2023/09/29 13:29:57;;;;;;;5.03;4.53;;;;;;;;;;5058439;28;20024;-56
2023/09/29 13:32:22;;;;;;;5.65;4.32;;;;;;;;;;5053166;28;20013;-59
2023/09/29 13:34:47;;;;;;;4.67;4.20;;;;;;;;;;5060850;28;20048;-59
2023/09/29 13:37:16;;;;;;;8.63;4.30;;;;;;;;;;5052334;28;20037;-59
2023/09/29 13:39:42;;;;;;;5.65;4.75;;;;;;;;;;5053732;28;20016;-58
2023/09/29 13:42:07;;;;;;;11.43;4.82;;;;;;;;;;5067977;28;20654;-58
2023/09/29 13:44:32;;;;;;;6.30;4.20;;;;;;;;;;5058831;28;20021;-58
2023/09/29 13:46:58;;;;;;;2.90;2.65;;;;;;;;;;5054736;28;20049;-58
2023/09/29 13:49:23;;;;;;;2.92;2.58;;;;;;;;;;5059159;28;20021;-58
2023/09/29 13:51:49;;;;;;;3.33;2.10;;;;;;;;;;5066314;28;20048;-58
2023/09/29 13:54:14;;;;;;;2.87;2.20;;;;;;;;;;5061933;28;20024;-58
2023/09/29 13:56:39;;;;;;;4.35;2.35;;;;;;;;;;5071569;28;20040;-58
2023/09/29 13:59:05;;;;;;;3.40;2.30;;;;;;;;;;5072475;28;20029;-58
2023/09/29 14:01:30;;;;;;;5.72;1.98;;;;;;;;;;5071829;28;20060;-58
2023/09/29 14:03:58;;;;;;;1.92;1.83;;;;;;;;;;5073342;28;20055;-57
2023/09/29 14:06:23;;;;;;;3.13;2.13;;;;;;;;;;5071893;28;20059;-57
2023/09/29 14:08:48;;;;;;;3.67;3.38;;;;;;;;;;5072677;28;20027;-58
2023/09/29 14:11:13;;;;;;;2.17;1.40;;;;;;;;;;5071367;28;20434;-57
2023/09/29 14:13:39;;;;;;;8.77;4.80;;;;;;;;;;5071575;28;20101;-58
2023/09/29 14:16:05;;;;;;;5.25;2.25;;;;;;;;;;5059498;28;20419;-66
2023/09/29 14:18:30;;;;;;;4.72;1.98;;;;;;;;;;5072856;28;20020;-58
2023/09/29 14:20:55;;;;;;;2.83;1.83;;;;;;;;;;5071367;28;20476;-62
2023/09/29 14:23:20;;;;;;;4.43;2.65;;;;;;;;;;5072726;28;20458;-58
2023/09/29 14:25:47;;;;;;;1.92;1.67;;;;;;;;;;5069777;28;20036;-59
2023/09/29 14:28:12;;;;;;;2.05;1.85;;;;;;;;;;5072368;28;20008;-58